Time;durP1;ratioP1;P1;durP2;ratioP2;P2;SDS_P1;SDS_P2;PMS_P1;PMS_P2;Temp;Humidity;BMP_temperature;BMP_pressure;BME280_temperature;BME280_humidity;BME280_pressure;Samples;Min_cycle;Max_cycle;Signal;HPM_P1;HPM_P2
2022/11/10 00:02:34;;;;;;;26.97;17.10;;;10.60;99.90;;;;;;5071553;28;20222;-68
2022/11/10 00:05:22;;;;;;;26.97;17.03;;;10.60;99.90;;;;;;5071548;28;20214;-71
2022/11/10 00:08:12;;;;;;;23.50;16.00;;;10.60;99.90;;;;;;5070596;28;20711;-70
2022/11/10 00:11:05;;;;;;;22.23;15.73;;;10.70;99.90;;;;;;5071466;28;20206;-67
2022/11/10 00:17:04;;;;;;;19.57;14.60;;;10.70;99.90;;;;;;5071203;28;20280;-73
2022/11/10 00:19:51;;;;;;;22.03;15.40;;;10.60;99.90;;;;;;5071147;28;20206;-73
2022/11/10 00:22:39;;;;;;;21.87;15.07;;;10.60;99.90;;;;;;5070606;28;20244;-72
2022/11/10 00:25:28;;;;;;;25.03;14.07;;;10.60;99.90;;;;;;5071142;28;20203;-66
2022/11/10 00:28:15;;;;;;;21.57;14.77;;;10.70;99.90;;;;;;5071052;28;20202;-72
2022/11/10 00:31:06;;;;;;;19.10;13.43;;;10.70;99.90;;;;;;5071053;28;20215;-72
2022/11/10 00:33:53;;;;;;;18.97;13.10;;;10.70;99.90;;;;;;5074596;28;20211;-70
2022/11/10 00:36:40;;;;;;;18.27;13.07;;;10.70;99.90;;;;;;5074213;28;20249;-70
2022/11/10 00:39:27;;;;;;;20.20;13.03;;;10.70;99.90;;;;;;5074804;28;20276;-71
2022/11/10 00:42:16;;;;;;;21.97;14.10;;;10.70;99.90;;;;;;5073851;28;20338;-69
2022/11/10 00:45:03;;;;;;;18.90;12.93;;;10.70;99.90;;;;;;5074696;28;20325;-68
2022/11/10 00:47:49;;;;;;;19.30;12.53;;;10.80;99.90;;;;;;5054313;28;20651;-72
2022/11/10 00:50:37;;;;;;;20.97;12.70;;;10.80;99.90;;;;;;5054440;28;20207;-71
2022/11/10 00:53:24;;;;;;;16.20;11.80;;;10.70;99.90;;;;;;5054007;28;20200;-73
2022/11/10 00:56:11;;;;;;;17.30;11.63;;;10.70;99.90;;;;;;5054442;28;20217;-72
2022/11/10 00:58:59;;;;;;;17.47;12.00;;;10.70;99.90;;;;;;5053928;28;20214;-72
2022/11/10 01:01:46;;;;;;;19.70;13.10;;;10.70;99.90;;;;;;5054188;28;20590;-74
2022/11/10 01:04:33;;;;;;;22.00;12.60;;;10.70;99.90;;;;;;5054097;28;20299;-73
2022/11/10 01:07:20;;;;;;;16.03;11.60;;;10.70;99.90;;;;;;5053309;28;20230;-71
2022/11/10 01:10:10;;;;;;;20.63;13.30;;;10.70;99.90;;;;;;5054020;28;20223;-73
2022/11/10 01:12:58;;;;;;;16.73;11.43;;;10.70;99.90;;;;;;5053907;28;20325;-71
2022/11/10 01:15:46;;;;;;;15.07;12.90;;;10.80;99.90;;;;;;5058082;28;20570;-72
2022/11/10 01:18:34;;;;;;;16.23;11.77;;;10.80;99.90;;;;;;5073925;28;20726;-68
2022/11/10 01:21:23;;;;;;;19.80;12.47;;;10.80;99.90;;;;;;5073217;28;20211;-71
2022/11/10 01:24:10;;;;;;;14.30;10.93;;;10.80;99.90;;;;;;5073783;28;20604;-71
2022/11/10 01:26:57;;;;;;;16.33;11.40;;;10.80;99.90;;;;;;5074093;28;20219;-72
2022/11/10 01:29:44;;;;;;;15.70;12.03;;;10.80;99.90;;;;;;5073219;28;20206;-68
2022/11/10 01:32:33;;;;;;;18.17;11.97;;;10.80;99.90;;;;;;5073656;28;20276;-71
2022/11/10 01:35:20;;;;;;;16.10;12.53;;;10.90;99.90;;;;;;5073470;28;20214;-68
2022/11/10 01:38:07;;;;;;;16.87;11.87;;;10.90;99.90;;;;;;5073589;28;20222;-69
2022/11/10 01:40:54;;;;;;;17.23;11.83;;;10.80;99.90;;;;;;5073526;28;20249;-70
2022/11/10 01:43:42;;;;;;;16.40;11.47;;;10.80;99.90;;;;;;5073059;28;20732;-70
2022/11/10 01:46:29;;;;;;;17.80;11.60;;;10.80;99.90;;;;;;5073388;28;20215;-71
2022/11/10 01:49:19;;;;;;;14.93;12.30;;;10.80;99.90;;;;;;5072563;28;20690;-72
2022/11/10 01:52:09;;;;;;;13.67;10.00;;;10.80;99.90;;;;;;5073439;28;20276;-73
2022/11/10 01:54:58;;;;;;;18.37;10.97;;;10.90;99.90;;;;;;5073123;28;20209;-69
2022/11/10 01:57:46;;;;;;;13.97;10.00;;;10.90;99.90;;;;;;5073262;28;20208;-73
2022/11/10 02:00:33;;;;;;;13.40;9.97;;;10.90;99.90;;;;;;5073045;28;20245;-69
2022/11/10 02:03:27;;;;;;;19.87;10.80;;;10.80;99.90;;;;;;5073459;28;20215;-70
2022/11/10 02:06:17;;;;;;;18.87;11.27;;;10.90;99.90;;;;;;5072790;28;20565;-72
2022/11/10 02:09:05;;;;;;;14.37;9.90;;;10.90;99.90;;;;;;5033046;28;20339;-68
2022/11/10 02:11:54;;;;;;;17.50;10.83;;;10.90;99.90;;;;;;5032881;28;20208;-69
2022/11/10 02:14:41;;;;;;;14.47;10.17;;;10.90;99.90;;;;;;5033032;28;20223;-69
2022/11/10 02:17:29;;;;;;;13.23;9.67;;;10.90;99.90;;;;;;5032791;28;20586;-73
2022/11/10 02:20:19;;;;;;;12.37;9.73;;;10.80;99.90;;;;;;5032842;28;20206;-72
2022/11/10 02:23:35;;;;;;;13.90;10.17;;;10.90;99.90;;;;;;5032730;28;20568;-72
2022/11/10 02:26:27;;;;;;;11.93;9.50;;;10.90;99.90;;;;;;5032907;28;20265;-73
2022/11/10 02:29:15;;;;;;;14.20;10.30;;;10.80;99.90;;;;;;5032675;28;20606;-69
2022/11/10 02:32:01;;;;;;;13.93;8.90;;;10.90;99.90;;;;;;5032590;28;20809;-67
2022/11/10 02:34:49;;;;;;;17.63;9.80;;;10.90;99.90;;;;;;5032648;28;20200;-72
2022/11/10 02:37:36;;;;;;;12.80;9.67;;;10.90;99.90;;;;;;5032506;28;20339;-71
2022/11/10 02:40:24;;;;;;;14.03;9.50;;;10.90;99.90;;;;;;5032329;28;20200;-68
2022/11/10 02:43:17;;;;;;;12.93;9.53;;;10.90;99.90;;;;;;5032577;28;20212;-70
2022/11/10 02:46:04;;;;;;;12.93;9.47;;;10.90;99.90;;;;;;5032349;28;20246;-69
2022/11/10 02:48:50;;;;;;;14.27;8.67;;;10.90;99.90;;;;;;5032108;28;20227;-68
2022/11/10 02:51:38;;;;;;;14.50;9.80;;;10.90;99.90;;;;;;5032122;28;20255;-73
2022/11/10 02:54:25;;;;;;;10.87;8.27;;;10.90;99.90;;;;;;5031877;28;20208;-68
2022/11/10 02:57:13;;;;;;;12.17;8.97;;;10.90;99.90;;;;;;5032141;28;20256;-69
2022/11/10 03:00:02;;;;;;;14.17;8.33;;;11.00;99.90;;;;;;5031824;28;20583;-71
2022/11/10 03:02:55;;;;;;;12.87;8.83;;;11.00;99.90;;;;;;5032354;28;20808;-69
2022/11/10 03:05:42;;;;;;;12.47;8.30;;;11.00;99.90;;;;;;5032101;28;20239;-72
2022/11/10 03:08:29;;;;;;;9.37;7.87;;;11.00;99.90;;;;;;5067870;28;20242;-71
2022/11/10 03:11:16;;;;;;;10.37;8.63;;;11.00;99.90;;;;;;5071993;28;20337;-72
2022/11/10 03:14:03;;;;;;;13.13;8.40;;;11.00;99.90;;;;;;5071882;28;20270;-70
2022/11/10 03:16:52;;;;;;;17.40;7.57;;;11.00;99.90;;;;;;5071913;28;20509;-69
2022/11/10 03:19:39;;;;;;;13.17;8.20;;;10.90;99.90;;;;;;5071870;28;20210;-68
2022/11/10 03:22:26;;;;;;;12.37;8.20;;;10.90;99.90;;;;;;5072093;28;20214;-70
2022/11/10 03:25:13;;;;;;;10.33;7.00;;;10.90;99.90;;;;;;5071810;28;20230;-69
2022/11/10 03:28:00;;;;;;;10.37;7.53;;;10.90;99.90;;;;;;5072076;28;20292;-68
2022/11/10 03:30:47;;;;;;;11.47;8.73;;;10.90;99.90;;;;;;5071713;28;20242;-69
2022/11/10 03:33:35;;;;;;;12.20;8.03;;;10.90;99.90;;;;;;5071773;28;20211;-68
2022/11/10 03:36:23;;;;;;;10.57;7.43;;;10.90;99.90;;;;;;5071943;28;20684;-70
2022/11/10 03:39:09;;;;;;;11.20;6.80;;;10.90;99.90;;;;;;5071944;28;20223;-68
2022/11/10 03:41:57;;;;;;;11.50;7.60;;;10.90;99.90;;;;;;5071763;28;20213;-70
2022/11/10 03:44:44;;;;;;;8.90;7.10;;;10.90;99.90;;;;;;5071459;28;20243;-68
2022/11/10 03:47:31;;;;;;;11.00;7.83;;;10.90;99.90;;;;;;5071390;28;20204;-70
2022/11/10 03:50:19;;;;;;;12.07;7.70;;;10.80;99.90;;;;;;5071298;28;20241;-69
2022/11/10 03:53:06;;;;;;;8.03;7.03;;;10.80;99.90;;;;;;5071550;28;20196;-71
2022/11/10 03:55:54;;;;;;;12.57;7.70;;;10.80;99.90;;;;;;5071845;28;20202;-69
2022/11/10 03:58:41;;;;;;;11.17;7.80;;;10.80;99.90;;;;;;5071703;28;20210;-68
2022/11/10 04:01:28;;;;;;;11.43;7.83;;;10.80;99.90;;;;;;5071629;28;20201;-68
2022/11/10 04:10:22;;;;;;;13.63;7.70;;;10.90;99.90;;;;;;5074173;28;20215;-73
2022/11/10 04:16:14;;;;;;;13.60;7.43;;;10.90;99.90;;;;;;5075187;28;20248;-73
2022/11/10 04:19:01;;;;;;;12.80;7.57;;;10.80;99.90;;;;;;5074968;28;20219;-72
2022/11/10 04:21:48;;;;;;;11.70;7.40;;;10.80;99.90;;;;;;5074772;28;20288;-73
2022/11/10 04:24:36;;;;;;;7.53;6.70;;;10.80;99.90;;;;;;5074843;28;20276;-72
2022/11/10 04:27:23;;;;;;;9.93;7.63;;;10.90;99.90;;;;;;5074878;28;20788;-72
2022/11/10 04:30:11;;;;;;;11.13;6.83;;;10.80;99.90;;;;;;5075039;28;20345;-68
2022/11/10 04:32:58;;;;;;;10.33;7.03;;;10.80;99.90;;;;;;5074904;28;20218;-69
2022/11/10 04:35:45;;;;;;;11.67;7.13;;;10.90;99.90;;;;;;5074625;28;20205;-71
2022/11/10 04:38:32;;;;;;;9.27;6.80;;;10.90;99.90;;;;;;5074856;28;20215;-73
2022/11/10 04:41:20;;;;;;;8.93;7.40;;;10.90;99.90;;;;;;5054735;28;20206;-69
2022/11/10 04:44:07;;;;;;;9.03;6.80;;;10.90;99.90;;;;;;5054473;28;20208;-71
2022/11/10 04:46:55;;;;;;;11.60;6.77;;;10.80;99.90;;;;;;5054666;28;20706;-72
2022/11/10 04:49:42;;;;;;;12.70;6.60;;;10.90;99.90;;;;;;5054507;28;20212;-71
2022/11/10 04:52:29;;;;;;;9.50;6.80;;;10.90;99.90;;;;;;5054605;28;20223;-72
2022/11/10 04:55:16;;;;;;;11.50;6.90;;;10.90;99.90;;;;;;5054397;28;20224;-73
2022/11/10 04:58:04;;;;;;;11.07;6.70;;;10.90;99.90;;;;;;5054224;28;20215;-71
2022/11/10 05:00:52;;;;;;;9.70;6.47;;;10.90;99.90;;;;;;5054287;28;20363;-73
2022/11/10 05:03:39;;;;;;;10.70;6.50;;;11.00;99.90;;;;;;5054278;28;20229;-75
2022/11/10 05:06:25;;;;;;;9.17;6.37;;;11.00;99.90;;;;;;5053875;28;20235;-69
2022/11/10 05:09:12;;;;;;;9.97;6.47;;;10.90;99.90;;;;;;5058246;28;20234;-68
2022/11/10 05:11:59;;;;;;;8.40;6.63;;;10.90;99.90;;;;;;5073806;28;20282;-68
2022/11/10 05:14:48;;;;;;;9.30;6.83;;;10.90;99.90;;;;;;5073823;28;20338;-69
2022/11/10 05:17:35;;;;;;;10.57;7.27;;;10.90;99.90;;;;;;5073611;28;20222;-71
2022/11/10 05:20:24;;;;;;;8.60;6.67;;;10.90;99.90;;;;;;5074118;28;20330;-68
2022/11/10 05:26:18;;;;;;;9.57;6.33;;;10.80;99.90;;;;;;5073764;28;20231;-68
2022/11/10 05:29:05;;;;;;;7.00;6.37;;;10.80;99.90;;;;;;5073474;28;20307;-73
2022/11/10 05:31:54;;;;;;;8.23;6.70;;;10.80;99.90;;;;;;5073503;28;20205;-69
2022/11/10 05:34:41;;;;;;;9.27;6.83;;;10.80;99.90;;;;;;5073305;28;20752;-71
2022/11/10 05:37:28;;;;;;;10.07;6.80;;;10.80;99.90;;;;;;5073308;28;20236;-67
2022/11/10 05:40:16;;;;;;;9.77;6.47;;;10.70;99.90;;;;;;5073298;28;20216;-70
2022/11/10 05:43:03;;;;;;;7.87;6.00;;;10.70;99.90;;;;;;5073363;28;20567;-71
2022/11/10 05:45:50;;;;;;;9.77;6.97;;;10.70;99.90;;;;;;5073173;28;20592;-69
2022/11/10 05:48:39;;;;;;;8.20;6.10;;;10.70;99.90;;;;;;5073077;28;20680;-68
2022/11/10 05:51:26;;;;;;;11.03;6.07;;;10.70;99.90;;;;;;5073167;28;20198;-68
2022/11/10 05:54:14;;;;;;;7.77;6.20;;;10.70;99.90;;;;;;5073138;28;20282;-68
2022/11/10 05:57:01;;;;;;;12.23;6.90;;;10.70;99.90;;;;;;5073086;28;20230;-68
2022/11/10 05:59:48;;;;;;;11.17;6.07;;;10.70;99.90;;;;;;5072853;28;20211;-68
2022/11/10 06:02:35;;;;;;;11.10;7.40;;;10.70;99.90;;;;;;5072740;28;20210;-68
2022/11/10 06:05:23;;;;;;;8.07;5.77;;;10.70;99.90;;;;;;5072992;28;20247;-69
2022/11/10 06:08:18;;;;;;;10.63;6.80;;;10.70;99.90;;;;;;5072677;28;20233;-69
2022/11/10 06:11:06;;;;;;;8.77;5.97;;;10.60;99.90;;;;;;5072458;28;20207;-68
2022/11/10 06:13:56;;;;;;;12.10;6.30;;;10.60;99.90;;;;;;5072446;28;20289;-69
2022/11/10 06:16:43;;;;;;;10.30;6.67;;;10.60;99.90;;;;;;5072677;28;20266;-68
2022/11/10 06:19:31;;;;;;;9.67;6.60;;;10.60;99.90;;;;;;5072376;28;20210;-69
2022/11/10 06:22:19;;;;;;;10.47;6.60;;;10.60;99.90;;;;;;5073014;28;20285;-68
2022/11/10 06:25:09;;;;;;;11.00;6.27;;;10.60;99.90;;;;;;5072651;28;20257;-67
2022/11/10 06:27:57;;;;;;;8.67;6.83;;;10.60;99.90;;;;;;5072487;28;20758;-68
2022/11/10 06:30:44;;;;;;;8.40;6.37;;;10.60;99.90;;;;;;5071551;28;20249;-68
2022/11/10 06:33:31;;;;;;;7.67;5.90;;;10.60;99.90;;;;;;5072272;28;20221;-68
2022/11/10 06:36:18;;;;;;;7.90;6.33;;;10.60;99.90;;;;;;5072675;28;20295;-67
2022/11/10 06:39:06;;;;;;;8.77;6.60;;;10.70;99.90;;;;;;5072341;28;20681;-67
2022/11/10 06:41:53;;;;;;;11.80;6.23;;;10.60;99.90;;;;;;5072543;28;20566;-69
2022/11/10 06:44:40;;;;;;;9.87;6.73;;;10.60;99.90;;;;;;5071615;28;20215;-69
2022/11/10 06:47:28;;;;;;;8.13;6.10;;;10.60;99.90;;;;;;5071651;28;20228;-70
2022/11/10 06:50:16;;;;;;;11.73;6.47;;;10.70;99.90;;;;;;5069927;28;20211;-72
2022/11/10 06:53:03;;;;;;;9.27;5.60;;;10.70;99.90;;;;;;5072489;28;20568;-72
2022/11/10 06:55:51;;;;;;;13.87;8.63;;;10.80;99.90;;;;;;5072232;28;20693;-75
2022/11/10 06:58:38;;;;;;;11.67;6.43;;;10.70;99.90;;;;;;5072335;28;20210;-69
2022/11/10 07:01:26;;;;;;;12.00;6.60;;;10.80;99.90;;;;;;5071290;28;20332;-72
2022/11/10 07:04:14;;;;;;;10.63;6.33;;;10.80;99.90;;;;;;5071888;28;20215;-72
2022/11/10 07:07:06;;;;;;;13.93;6.20;;;10.80;99.90;;;;;;5071782;28;20257;-74
2022/11/10 07:09:53;;;;;;;9.43;6.17;;;10.90;99.90;;;;;;5071868;28;20206;-69
2022/11/10 07:12:42;;;;;;;8.60;6.00;;;11.00;99.90;;;;;;5072141;28;20303;-73
2022/11/10 07:15:29;;;;;;;12.70;6.07;;;11.00;99.90;;;;;;5071505;28;20280;-72
2022/11/10 07:18:16;;;;;;;7.63;6.57;;;11.00;99.90;;;;;;5071655;28;20215;-71
2022/11/10 07:21:03;;;;;;;10.73;6.53;;;11.10;99.90;;;;;;5072052;28;20619;-70
2022/11/10 07:23:50;;;;;;;10.53;6.23;;;11.20;99.90;;;;;;5071806;28;20210;-73
2022/11/10 07:26:38;;;;;;;11.10;6.43;;;11.10;99.90;;;;;;5071820;28;20253;-72
2022/11/10 07:29:26;;;;;;;19.23;10.40;;;11.20;99.90;;;;;;5071875;28;20202;-71
2022/11/10 07:32:14;;;;;;;8.30;6.77;;;11.30;99.90;;;;;;5071489;28;20203;-67
2022/11/10 07:35:02;;;;;;;15.97;9.20;;;11.40;99.90;;;;;;5071606;28;20331;-73
2022/11/10 07:37:49;;;;;;;15.77;11.20;;;11.40;99.90;;;;;;5071849;28;20577;-73
2022/11/10 07:40:36;;;;;;;6.37;4.83;;;11.40;99.90;;;;;;5073254;28;20202;-74
2022/11/10 07:43:25;;;;;;;8.70;5.03;;;11.40;99.90;;;;;;5076911;28;20735;-71
2022/11/10 07:46:14;;;;;;;9.17;5.27;;;11.40;99.90;;;;;;5076543;28;20710;-75
2022/11/10 07:49:01;;;;;;;13.40;6.37;;;11.40;99.90;;;;;;5076504;28;20211;-75
2022/11/10 07:51:48;;;;;;;11.53;5.90;;;11.40;99.90;;;;;;5076808;28;20276;-76
2022/11/10 07:54:35;;;;;;;12.70;5.40;;;11.50;99.90;;;;;;5076106;28;20224;-73
2022/11/10 07:57:22;;;;;;;8.60;5.70;;;11.50;99.90;;;;;;5076504;28;20202;-70
2022/11/10 08:00:12;;;;;;;15.60;10.27;;;11.50;99.90;;;;;;5070962;28;20317;-72
2022/11/10 08:03:04;;;;;;;8.67;5.73;;;11.60;99.90;;;;;;5068085;28;20732;-72
2022/11/10 08:05:52;;;;;;;8.73;5.03;;;11.60;99.90;;;;;;5075892;28;20208;-67
2022/11/10 08:08:39;;;;;;;8.37;6.00;;;11.60;99.90;;;;;;5076031;28;20729;-68
2022/11/10 08:11:26;;;;;;;8.47;5.23;;;11.60;99.90;;;;;;5076194;28;20257;-67
2022/11/10 08:14:13;;;;;;;11.57;7.63;;;11.60;99.90;;;;;;5075292;28;20333;-72
2022/11/10 08:17:01;;;;;;;15.00;7.60;;;11.60;99.90;;;;;;5074464;28;20640;-68
2022/11/10 08:19:49;;;;;;;7.57;5.00;;;11.70;99.90;;;;;;5075701;28;20203;-67
2022/11/10 08:22:36;;;;;;;11.87;5.90;;;11.70;99.90;;;;;;5075881;28;20290;-66
2022/11/10 08:25:23;;;;;;;12.17;6.70;;;11.70;99.90;;;;;;5075805;28;20728;-66
2022/11/10 08:28:14;;;;;;;9.80;6.50;;;11.80;99.90;;;;;;5075845;28;20242;-67
2022/11/10 08:31:03;;;;;;;7.67;5.07;;;12.00;99.90;;;;;;5075883;28;20330;-66
2022/11/10 08:33:51;;;;;;;7.90;5.80;;;12.00;99.90;;;;;;5075774;28;20239;-68
2022/11/10 08:36:39;;;;;;;7.47;5.20;;;12.00;99.90;;;;;;5075804;28;20624;-69
2022/11/10 08:39:27;;;;;;;6.17;4.67;;;12.00;99.90;;;;;;5075390;28;20203;-69
2022/11/10 08:42:24;;;;;;;10.50;5.20;;;11.90;99.90;;;;;;5075495;28;20250;-67
2022/11/10 08:45:11;;;;;;;7.60;4.80;;;11.80;99.90;;;;;;5075301;28;20257;-66
2022/11/10 08:47:59;;;;;;;6.03;4.47;;;11.90;99.90;;;;;;5074978;28;20247;-67
2022/11/10 08:50:48;;;;;;;6.20;4.67;;;11.80;99.90;;;;;;5075539;28;20565;-70
2022/11/10 08:53:37;;;;;;;10.00;4.97;;;11.80;99.90;;;;;;5074684;28;20212;-68
2022/11/10 08:56:24;;;;;;;10.20;4.87;;;11.90;99.90;;;;;;5075274;28;20686;-67
2022/11/10 08:59:11;;;;;;;9.53;4.57;;;12.10;99.90;;;;;;5074939;28;20275;-68
2022/11/10 09:01:58;;;;;;;6.13;3.87;;;12.10;99.90;;;;;;5074922;28;20262;-66
2022/11/10 09:04:45;;;;;;;6.93;4.70;;;12.10;99.90;;;;;;5075107;28;20196;-68
2022/11/10 09:07:34;;;;;;;7.33;4.70;;;12.20;99.90;;;;;;5074660;28;20243;-67
2022/11/10 09:10:23;;;;;;;6.63;3.97;;;12.20;99.90;;;;;;5074879;28;20299;-66
2022/11/10 09:13:11;;;;;;;5.17;4.17;;;12.20;99.90;;;;;;5074755;28;20207;-68
2022/11/10 09:16:01;;;;;;;7.17;5.50;;;12.20;99.90;;;;;;5074374;28;20688;-68
2022/11/10 09:18:48;;;;;;;6.03;3.57;;;12.30;99.90;;;;;;5075233;28;20220;-70
2022/11/10 09:21:35;;;;;;;6.60;4.00;;;12.40;99.90;;;;;;5074775;28;20207;-68
2022/11/10 09:24:22;;;;;;;6.43;3.83;;;12.40;99.90;;;;;;5075514;28;20580;-69
2022/11/10 09:27:14;;;;;;;8.90;4.00;;;12.20;99.90;;;;;;5073972;28;20216;-67
2022/11/10 09:30:01;;;;;;;8.77;4.50;;;12.20;99.90;;;;;;5074845;28;20295;-70
2022/11/10 09:32:53;;;;;;;4.57;3.47;;;12.20;99.90;;;;;;5074583;28;20212;-69
2022/11/10 09:35:40;;;;;;;7.03;3.50;;;12.10;99.90;;;;;;5074501;28;20199;-67
2022/11/10 09:38:27;;;;;;;4.90;4.17;;;12.20;99.90;;;;;;5074638;28;20203;-68
2022/11/10 09:41:15;;;;;;;5.90;3.57;;;12.40;99.90;;;;;;5073614;28;20247;-67
2022/11/10 09:44:12;;;;;;;9.80;4.10;;;12.50;99.90;;;;;;5074450;28;20575;-71
2022/11/10 09:47:03;;;;;;;5.00;4.20;;;12.40;99.90;;;;;;5073750;28;20224;-67
2022/11/10 09:49:56;;;;;;;5.30;4.23;;;12.50;99.90;;;;;;5073952;28;20201;-68
2022/11/10 09:52:45;;;;;;;9.30;4.37;;;12.50;99.90;;;;;;5074090;28;20334;-68
2022/11/10 09:55:38;;;;;;;6.23;4.43;;;12.50;99.90;;;;;;5073850;28;20571;-68
2022/11/10 09:58:32;;;;;;;5.73;3.47;;;12.60;99.90;;;;;;5073727;28;20556;-69
2022/11/10 10:01:33;;;;;;;5.50;3.57;;;12.50;99.90;;;;;;5073820;28;20196;-68
2022/11/10 10:04:41;;;;;;;4.23;3.53;;;12.40;99.90;;;;;;5073707;28;20203;-71
2022/11/10 10:07:45;;;;;;;8.57;3.53;;;12.50;99.90;;;;;;5073296;28;20852;-68
2022/11/10 10:10:37;;;;;;;5.50;3.80;;;12.50;99.90;;;;;;5073136;28;20248;-67
2022/11/10 10:13:42;;;;;;;7.10;3.17;;;12.60;99.90;;;;;;5073664;28;20204;-69
2022/11/10 10:16:36;;;;;;;6.30;3.57;;;12.60;99.90;;;;;;5073217;28;20254;-68
2022/11/10 10:19:30;;;;;;;7.07;5.23;;;12.50;99.90;;;;;;5074008;28;20204;-70
2022/11/10 10:22:31;;;;;;;9.10;3.20;;;12.50;99.90;;;;;;5073608;28;20338;-71
2022/11/10 10:25:21;;;;;;;6.33;3.90;;;12.40;99.90;;;;;;5072819;28;20212;-68
2022/11/10 10:28:19;;;;;;;8.73;5.30;;;12.40;99.90;;;;;;5073072;28;20236;-67
2022/11/10 10:31:17;;;;;;;7.53;4.20;;;12.60;99.90;;;;;;5073146;28;20202;-68
2022/11/10 10:34:12;;;;;;;6.77;3.60;;;12.70;99.90;;;;;;5073451;28;20208;-68
2022/11/10 10:37:00;;;;;;;3.50;3.00;;;12.70;99.90;;;;;;5073224;28;20200;-68
2022/11/10 10:39:50;;;;;;;6.67;3.47;;;12.60;99.90;;;;;;5072636;28;20285;-68
2022/11/10 10:42:38;;;;;;;7.97;5.27;;;12.60;99.90;;;;;;5073424;28;20200;-70
2022/11/10 10:45:27;;;;;;;6.13;3.27;;;12.50;99.90;;;;;;5073122;28;20567;-69
2022/11/10 10:48:32;;;;;;;8.57;3.97;;;12.50;99.90;;;;;;5073138;28;20220;-70
2022/11/10 10:51:31;;;;;;;7.17;3.60;;;12.50;99.90;;;;;;5073012;28;20681;-67
2022/11/10 10:54:27;;;;;;;4.57;3.77;;;12.30;99.90;;;;;;5072590;28;20203;-69
2022/11/10 10:57:23;;;;;;;3.97;2.83;;;12.10;99.90;;;;;;5072976;28;20319;-68
2022/11/10 11:00:19;;;;;;;11.43;3.73;;;11.90;99.90;;;;;;5073258;28;20207;-69
2022/11/10 11:03:13;;;;;;;9.63;3.97;;;11.80;99.90;;;;;;5073224;28;20208;-67
2022/11/10 11:06:19;;;;;;;11.83;6.30;;;11.70;99.90;;;;;;5072762;28;20223;-68
2022/11/10 11:09:17;;;;;;;5.67;3.70;;;11.60;99.90;;;;;;5072697;28;20248;-67
2022/11/10 11:12:06;;;;;;;8.93;4.33;;;11.70;99.90;;;;;;5073023;28;20200;-70
2022/11/10 11:15:19;;;;;;;10.47;3.93;;;12.00;99.90;;;;;;5072811;28;20580;-70
2022/11/10 11:18:14;;;;;;;12.07;6.43;;;12.40;99.90;;;;;;5072636;28;20292;-69
2022/11/10 11:21:08;;;;;;;9.47;3.87;;;12.40;99.90;;;;;;5072893;28;20680;-72
2022/11/10 11:24:16;;;;;;;16.50;7.37;;;12.40;99.90;;;;;;5073122;28;20270;-69
2022/11/10 11:27:05;;;;;;;11.07;4.63;;;12.40;99.90;;;;;;5073087;28;20203;-67
2022/11/10 11:30:05;;;;;;;11.27;4.23;;;12.50;99.90;;;;;;5072134;28;20374;-69
2022/11/10 11:33:18;;;;;;;14.33;4.40;;;12.40;99.90;;;;;;5072360;28;20515;-69
2022/11/10 11:36:20;;;;;;;9.13;3.90;;;12.30;99.90;;;;;;5010715;28;20332;-70
2022/11/10 11:39:26;;;;;;;9.90;4.47;;;12.20;99.90;;;;;;5010580;28;20200;-69
2022/11/10 11:42:26;;;;;;;8.73;4.13;;;12.20;99.90;;;;;;5011079;28;20260;-70
2022/11/10 11:45:20;;;;;;;18.67;4.67;;;12.20;99.90;;;;;;5010919;28;20208;-68
2022/11/10 11:48:34;;;;;;;10.93;4.70;;;12.40;99.90;;;;;;5009919;28;20218;-69
2022/11/10 11:51:29;;;;;;;20.27;10.47;;;12.70;99.90;;;;;;5010612;28;20202;-69
2022/11/10 11:54:33;;;;;;;15.00;6.93;;;12.80;99.90;;;;;;5010845;28;20219;-67
2022/11/10 11:57:32;;;;;;;13.93;4.50;;;12.90;99.90;;;;;;5010490;28;20242;-68
2022/11/10 12:00:25;;;;;;;13.10;4.03;;;13.00;99.90;;;;;;5010360;28;20213;-66
2022/11/10 12:03:32;;;;;;;18.80;7.80;;;12.90;99.90;;;;;;5010964;28;20217;-69
2022/11/10 12:06:35;;;;;;;11.07;3.97;;;12.80;99.90;;;;;;5010690;28;20214;-67
2022/11/10 12:09:32;;;;;;;12.07;4.17;;;12.80;99.90;;;;;;5010282;28;20285;-68
2022/11/10 12:12:37;;;;;;;12.77;4.20;;;12.60;99.90;;;;;;5028226;28;20231;-68
2022/11/10 12:15:33;;;;;;;12.37;4.27;;;12.50;99.90;;;;;;5072073;28;20200;-69
2022/11/10 12:18:31;;;;;;;17.33;4.07;;;12.40;99.90;;;;;;5072324;28;20207;-69
2022/11/10 12:21:23;;;;;;;12.90;4.10;;;12.40;99.90;;;;;;5072129;28;20270;-70
2022/11/10 12:24:35;;;;;;;13.57;4.33;;;12.40;99.90;;;;;;5072173;28;20268;-70
2022/11/10 12:27:26;;;;;;;10.77;4.20;;;12.50;99.90;;;;;;5072202;28;20246;-72
2022/11/10 12:30:16;;;;;;;11.43;4.27;;;12.50;99.90;;;;;;5075368;28;20227;-74
2022/11/10 12:33:12;;;;;;;13.80;4.10;;;12.50;99.90;;;;;;5075556;28;20596;-68
2022/11/10 12:36:01;;;;;;;12.17;4.80;;;12.50;99.90;;;;;;5075747;28;20721;-68
2022/11/10 12:38:55;;;;;;;11.67;4.27;;;12.40;99.90;;;;;;5075459;28;20196;-67
2022/11/10 12:41:58;;;;;;;12.10;4.23;;;12.40;99.90;;;;;;5075332;28;20687;-68
2022/11/10 12:44:57;;;;;;;9.67;4.00;;;12.30;99.90;;;;;;5075470;28;20300;-68
2022/11/10 12:47:46;;;;;;;8.10;4.30;;;12.30;99.90;;;;;;5075060;28;20341;-69
2022/11/10 12:50:44;;;;;;;15.53;4.67;;;12.50;99.90;;;;;;5074596;28;20248;-68
2022/11/10 12:53:35;;;;;;;12.13;4.03;;;12.70;99.90;;;;;;5075814;28;20309;-69
2022/11/10 12:56:26;;;;;;;11.73;4.00;;;12.80;99.90;;;;;;5075345;28;20216;-69
2022/11/10 12:59:29;;;;;;;10.73;4.10;;;12.80;99.90;;;;;;5074180;28;20207;-69
2022/11/10 13:02:27;;;;;;;16.50;4.77;;;12.90;99.90;;;;;;5075306;28;20704;-70
2022/11/10 13:05:31;;;;;;;11.57;5.17;;;12.90;99.90;;;;;;5074291;28;20247;-68
2022/11/10 13:08:28;;;;;;;14.97;4.80;;;13.10;99.90;;;;;;5074905;28;20228;-68
2022/11/10 13:11:26;;;;;;;14.07;6.60;;;13.30;99.90;;;;;;5074997;28;20212;-67
2022/11/10 13:14:24;;;;;;;13.10;5.03;;;13.20;99.90;;;;;;5074875;28;20201;-67
2022/11/10 13:17:47;;;;;;;9.50;4.80;;;13.10;99.90;;;;;;5074866;28;20702;-67
2022/11/10 13:20:50;;;;;;;9.60;4.17;;;13.10;99.90;;;;;;5074805;28;20219;-67
2022/11/10 13:24:28;;;;;;;13.00;3.70;;;13.10;99.90;;;;;;5074061;28;20220;-67
2022/11/10 13:27:51;;;;;;;10.53;3.33;;;12.90;99.90;;;;;;5013016;28;20210;-67
2022/11/10 13:30:43;;;;;;;13.73;4.67;;;12.80;99.90;;;;;;5012474;28;20242;-69
2022/11/10 13:33:36;;;;;;;13.17;4.70;;;12.80;99.90;;;;;;5012885;28;20344;-68
2022/11/10 13:36:39;;;;;;;16.87;4.43;;;12.80;99.90;;;;;;5012767;28;20218;-67
2022/11/10 13:39:29;;;;;;;13.33;5.10;;;12.70;99.90;;;;;;5012469;28;20203;-68
2022/11/10 13:42:22;;;;;;;7.90;3.83;;;12.70;99.90;;;;;;5012684;28;20560;-66
2022/11/10 13:45:29;;;;;;;13.83;4.37;;;12.70;99.90;;;;;;5012737;28;20246;-67
2022/11/10 13:48:29;;;;;;;13.77;3.57;;;12.70;99.90;;;;;;5002439;28;20280;-68
2022/11/10 13:51:26;;;;;;;15.37;4.57;;;12.70;99.90;;;;;;5000425;28;20341;-69
2022/11/10 13:54:49;;;;;;;10.87;4.27;;;12.60;99.90;;;;;;5004043;28;20731;-69
2022/11/10 13:57:38;;;;;;;14.47;4.37;;;12.70;99.90;;;;;;4963437;28;20216;-67
2022/11/10 14:00:28;;;;;;;8.17;3.90;;;12.90;99.90;;;;;;4995391;28;20659;-67
2022/11/10 14:03:52;;;;;;;10.70;3.80;;;12.80;99.90;;;;;;5012335;28;20584;-68
2022/11/10 14:06:45;;;;;;;15.67;4.40;;;12.80;99.90;;;;;;4934675;29;20287;-68
2022/11/10 14:09:38;;;;;;;22.77;11.10;;;12.70;99.90;;;;;;4934575;29;20229;-67
2022/11/10 14:12:33;;;;;;;16.17;4.87;;;12.70;99.90;;;;;;4934906;29;20354;-70
2022/11/10 14:15:23;;;;;;;11.77;5.60;;;12.60;99.90;;;;;;4934617;29;20273;-70
2022/11/10 14:18:18;;;;;;;12.97;5.43;;;12.50;99.90;;;;;;4934458;29;20256;-73
2022/11/10 14:21:06;;;;;;;20.13;4.80;;;12.30;99.90;;;;;;4934958;29;20231;-69
2022/11/10 14:24:01;;;;;;;11.83;4.30;;;12.20;99.90;;;;;;4934813;29;20284;-69
2022/11/10 14:26:52;;;;;;;13.73;4.60;;;12.10;99.90;;;;;;4934475;29;20207;-72
2022/11/10 14:29:41;;;;;;;13.83;5.43;;;11.90;99.90;;;;;;4934389;29;20251;-72
2022/11/10 14:32:29;;;;;;;13.40;4.70;;;11.90;99.90;;;;;;4934638;29;20291;-73
2022/11/10 14:35:22;;;;;;;10.50;4.73;;;11.80;99.90;;;;;;5009823;28;20212;-68
2022/11/10 14:38:20;;;;;;;11.73;4.17;;;11.80;99.90;;;;;;5012025;28;20210;-70
2022/11/10 14:41:18;;;;;;;14.07;4.63;;;11.70;99.90;;;;;;5011709;28;20217;-69
2022/11/10 14:44:14;;;;;;;14.47;4.83;;;11.70;99.90;;;;;;5058906;28;20701;-69
2022/11/10 14:47:15;;;;;;;12.67;5.67;;;11.70;99.90;;;;;;5070435;28;20790;-69
2022/11/10 14:50:17;;;;;;;10.87;5.17;;;11.60;99.90;;;;;;5064288;28;20227;-69
2022/11/10 14:53:19;;;;;;;18.77;5.60;;;11.60;99.90;;;;;;5053941;28;20287;-68
2022/11/10 14:56:13;;;;;;;15.97;5.57;;;11.60;99.90;;;;;;5058486;28;20265;-66
2022/11/10 14:59:04;;;;;;;13.13;5.53;;;11.60;99.90;;;;;;5073468;28;20277;-67